»·PEaware :: AAL561 KLAX-KPHX

AAL561 :: KLAX-KPHX

FLIGHT INFORMATION

Flight Status: Arrived
Operator:
American Airlines
More flights by this operator :: More flights under this callsign
Pilot: Alfredo R. (12181)
Aircraft: BOEING 737-300
(B733)
More flights by this aircraft type
Origin: KLAX Los Angeles Intl
United States
Destination: KPHX Phoenix Sky Harbor Intl
United States
More flights between these airports :: More routes between these airports
Route: DOTSS2 CNERY BLH HYDRR1
File this flight plan on PilotEdge
Remarks:
Altitude:
(Current/Filed)
33,000ft
Speed:
(Current/Filed)
430kts
Departed: 01-Oct-17 06:59 PM
Arrived: 01-Oct-17 08:00 PM
Distance/Time
Traveled:
321nm/1:01
Distance/Time
To Go:
Arrived

Flight Plot

Page will automatically refresh every two minutes.

Flight plan parsing failed; only flown route is shown


Map Options




Map Legend


Flown Route
Filed Route
Departure Airport
Arrival Airport
Navaid (VOR, NDB)
Fix

Horizontal Profiles

Position Reports

Time Latitude Longitude Heading Altitude Ground
Speed
01-Oct-17 18:27 33.940467 -118.406195 279 132ft 0kts
01-Oct-17 18:28 33.940467 -118.406195 279 132ft 0kts
01-Oct-17 18:29 33.940467 -118.406195 279 132ft 0kts
01-Oct-17 18:30 33.940467 -118.406195 279 132ft 0kts
01-Oct-17 18:31 33.940467 -118.406195 279 132ft 0kts
01-Oct-17 18:32 33.940467 -118.406195 279 132ft 0kts
01-Oct-17 18:33 33.940467 -118.406195 279 132ft 0kts
01-Oct-17 18:34 33.940467 -118.406195 279 132ft 0kts
01-Oct-17 18:35 33.940467 -118.406195 279 132ft 0kts
01-Oct-17 18:36 33.940467 -118.406195 279 132ft 0kts
01-Oct-17 18:37 33.940467 -118.406195 279 132ft 0kts
01-Oct-17 18:38 33.940467 -118.406195 279 132ft 0kts
01-Oct-17 18:39 33.940467 -118.406195 279 132ft 0kts
01-Oct-17 18:40 33.940467 -118.406195 279 132ft 0kts
01-Oct-17 18:41 33.940467 -118.406195 279 132ft 0kts
01-Oct-17 18:42 33.940467 -118.406195 279 132ft 0kts
01-Oct-17 18:43 33.940467 -118.406195 279 132ft 0kts
01-Oct-17 18:44 33.940451 -118.406074 279 132ft 1kts
01-Oct-17 18:45 33.940451 -118.405765 259 132ft 1kts
01-Oct-17 18:46 33.940603 -118.405556 171 132ft 0kts
01-Oct-17 18:47 33.940603 -118.405556 171 132ft 0kts
01-Oct-17 18:48 33.940603 -118.405556 171 132ft 0kts
01-Oct-17 18:49 33.940603 -118.405556 171 132ft 0kts
01-Oct-17 18:50 33.940603 -118.405556 171 132ft 0kts
01-Oct-17 18:51 33.940508 -118.405539 171 132ft 2kts
01-Oct-17 18:52 33.939906 -118.405457 173 132ft 0kts
01-Oct-17 18:53 33.939906 -118.405457 173 132ft 0kts
01-Oct-17 18:54 33.939905 -118.405457 173 132ft 0kts
01-Oct-17 18:55 33.939139 -118.404528 83 132ft 10kts
01-Oct-17 18:56 33.939650 -118.399592 83 132ft 18kts
01-Oct-17 18:57 33.940303 -118.393209 83 132ft 19kts
01-Oct-17 18:58 33.940903 -118.386558 83 132ft 20kts
01-Oct-17 18:59 33.940572 -118.382419 83 132ft 9kts
01-Oct-17 19:00 33.940699 -118.380695 109 132ft 0kts
01-Oct-17 19:01 33.940615 -118.380463 120 132ft 4kts
01-Oct-17 19:02 33.939544 -118.383056 262 132ft 21kts
01-Oct-17 19:03 33.936620 -118.411005 262 378ft 164kts
01-Oct-17 19:04 33.921258 -118.467177 239 2484ft 195kts
01-Oct-17 19:05 33.886208 -118.523603 234 4105ft 224kts
01-Oct-17 19:06 33.829626 -118.555983 172 5629ft 285kts
01-Oct-17 19:07 33.751792 -118.535343 171 7769ft 301kts
01-Oct-17 19:08 33.685119 -118.481271 109 9783ft 320kts
01-Oct-17 19:09 33.653791 -118.374159 108 10678ft 376kts
01-Oct-17 19:10 33.644516 -118.251583 88 12701ft 384kts
01-Oct-17 19:11 33.644719 -118.123401 88 14644ft 396kts
01-Oct-17 19:12 33.644688 -117.993154 89 16527ft 404kts
01-Oct-17 19:13 33.644513 -117.859949 89 18296ft 413kts
01-Oct-17 19:14 33.627501 -117.726109 106 19871ft 424kts
01-Oct-17 19:15 33.593775 -117.590603 106 21428ft 434kts
01-Oct-17 19:16 33.559675 -117.452620 105 22869ft 442kts
01-Oct-17 19:17 33.524716 -117.311769 106 24110ft 452kts
01-Oct-17 19:18 33.502992 -117.165514 87 25259ft 454kts
01-Oct-17 19:19 33.502029 -117.014593 88 26325ft 461kts
01-Oct-17 19:20 33.499841 -116.860784 88 27355ft 467kts
01-Oct-17 19:21 33.497451 -116.705163 88 28466ft 469kts
01-Oct-17 19:22 33.494854 -116.549521 88 29581ft 468kts
01-Oct-17 19:23 33.492020 -116.395116 88 30774ft 462kts
01-Oct-17 19:24 33.489539 -116.241569 88 31550ft 464kts
01-Oct-17 19:25 33.487154 -116.087382 89 32290ft 464kts
01-Oct-17 19:26 33.512611 -115.940929 65 32556ft 453kts
01-Oct-17 19:27 33.554428 -115.800823 67 32533ft 451kts
01-Oct-17 19:28 33.595757 -115.658931 67 32538ft 453kts
01-Oct-17 19:29 33.620007 -115.513117 95 32542ft 462kts
01-Oct-17 19:30 33.612746 -115.361140 89 32570ft 461kts
01-Oct-17 19:31 33.608922 -115.208524 90 32562ft 463kts
01-Oct-17 19:32 33.604839 -115.055600 90 32494ft 464kts
01-Oct-17 19:33 33.600575 -114.902652 89 31453ft 462kts
01-Oct-17 19:34 33.594979 -114.750035 98 30266ft 465kts
01-Oct-17 19:35 33.564769 -114.599562 101 29093ft 463kts
01-Oct-17 19:36 33.535647 -114.450010 101 27916ft 466kts
01-Oct-17 19:37 33.506200 -114.299504 102 26698ft 467kts
01-Oct-17 19:38 33.476819 -114.150496 102 25496ft 449kts
01-Oct-17 19:39 33.448155 -114.008508 103 24297ft 440kts
01-Oct-17 19:40 33.419917 -113.868247 103 22818ft 431kts
01-Oct-17 19:41 33.392526 -113.731859 103 21447ft 421kts
01-Oct-17 19:42 33.365392 -113.597555 104 19969ft 411kts
01-Oct-17 19:43 33.338918 -113.467270 104 18752ft 402kts
01-Oct-17 19:44 33.316320 -113.338861 102 17550ft 396kts
01-Oct-17 19:45 33.295515 -113.216362 101 16320ft 368kts
01-Oct-17 19:46 33.278404 -113.097127 101 15139ft 364kts
01-Oct-17 19:47 33.276585 -112.979058 88 13932ft 346kts
01-Oct-17 19:48 33.279539 -112.867729 89 12737ft 334kts
01-Oct-17 19:49 33.286392 -112.759460 84 11607ft 325kts
01-Oct-17 19:50 33.296445 -112.653806 85 10987ft 319kts
01-Oct-17 19:51 33.306272 -112.549032 85 10664ft 321kts
01-Oct-17 19:52 33.315882 -112.445593 85 10076ft 316kts
01-Oct-17 19:53 33.325282 -112.342734 86 9555ft 313kts
01-Oct-17 19:54 33.334415 -112.240710 86 9138ft 310kts
01-Oct-17 19:55 33.342984 -112.146746 87 8658ft 260kts
01-Oct-17 19:56 33.347518 -112.062266 94 7976ft 254kts
01-Oct-17 19:57 33.346328 -111.978493 93 7186ft 253kts
01-Oct-17 19:58 33.347951 -111.895444 90 6188ft 249kts
01-Oct-17 19:59 33.363448 -111.818290 43 4989ft 245kts
01-Oct-17 20:00 33.417166 -111.824205 302 3813ft 205kts
01-Oct-17 20:01 33.432867 -111.883684 268 2991ft 178kts
01-Oct-17 20:02 33.429542 -111.941210 257 2259ft 167kts
01-Oct-17 20:03 33.428770 -111.991234 269 1352ft 140kts
01-Oct-17 20:04 33.428810 -112.021692 270 1141ft 40kts
01-Oct-17 20:05 33.430377 -112.025459 2 1141ft 9kts
01-Oct-17 20:06 33.432123 -112.024978 72 1141ft 6kts
01-Oct-17 20:07 33.432159 -112.021747 89 1141ft 12kts
01-Oct-17 20:08 33.432150 -112.016956 90 1141ft 16kts
01-Oct-17 20:09 33.432150 -112.011083 89 1141ft 17kts
01-Oct-17 20:10 33.433086 -112.007901 324 1141ft 9kts
01-Oct-17 20:11 33.433590 -112.008332 324 1141ft 0kts

Navigation Log

Ident Type
Flight plan parsing failed, navigation log unavailable